Time;durP1;ratioP1;P1;durP2;ratioP2;P2;SDS_P1;SDS_P2;PMS_P1;PMS_P2;Temp;Humidity;BMP_temperature;BMP_pressure;BME280_temperature;BME280_humidity;BME280_pressure;Samples;Min_cycle;Max_cycle;Signal;HPM_P1;HPM_P2
2024/04/11 00:01:08;;;;;;;16.10;3.85;;;;;;;;;;5381295;26;20000;-68
2024/04/11 00:03:36;;;;;;;16.05;4.70;;;;;;;;;;5351349;26;20000;-68
2024/04/11 00:06:01;;;;;;;11.98;4.10;;;;;;;;;;5381753;26;20070;-68
2024/04/11 00:08:27;;;;;;;11.55;4.47;;;;;;;;;;5382026;26;20005;-68
2024/04/11 00:10:53;;;;;;;11.25;3.92;;;;;;;;;;5381886;26;20028;-68
2024/04/11 00:13:18;;;;;;;14.27;4.38;;;;;;;;;;5351510;26;20025;-68
2024/04/11 00:15:44;;;;;;;12.55;3.33;;;;;;;;;;5350319;26;19996;-68
2024/04/11 00:18:09;;;;;;;13.30;4.30;;;;;;;;;;5350953;26;20007;-68
2024/04/11 00:20:35;;;;;;;8.43;4.15;;;;;;;;;;5350622;26;19997;-68
2024/04/11 00:23:00;;;;;;;15.10;4.45;;;;;;;;;;5374970;21;20434;-69
2024/04/11 00:25:26;;;;;;;9.80;3.15;;;;;;;;;;5381290;26;20336;-69
2024/04/11 00:27:51;;;;;;;10.13;4.43;;;;;;;;;;5382446;26;19996;-69
2024/04/11 00:30:17;;;;;;;10.30;3.58;;;;;;;;;;5384191;26;20353;-69
2024/04/11 00:32:42;;;;;;;13.57;4.05;;;;;;;;;;5384596;26;20020;-69
2024/04/11 00:35:08;;;;;;;14.07;4.45;;;;;;;;;;5354046;26;20098;-69
2024/04/11 00:37:33;;;;;;;10.52;4.28;;;;;;;;;;5384780;26;20469;-69
2024/04/11 00:39:58;;;;;;;10.82;3.90;;;;;;;;;;5384661;26;20003;-69
2024/04/11 00:42:24;;;;;;;9.15;4.03;;;;;;;;;;5383987;26;20348;-69
2024/04/11 00:44:49;;;;;;;10.73;4.80;;;;;;;;;;5384569;26;19993;-69
2024/04/11 00:47:15;;;;;;;9.15;4.28;;;;;;;;;;5384764;26;19996;-69
2024/04/11 00:49:42;;;;;;;9.57;3.92;;;;;;;;;;5384548;26;19996;-69
2024/04/11 00:52:07;;;;;;;7.63;3.50;;;;;;;;;;5353698;26;20004;-69
2024/04/11 00:54:33;;;;;;;17.13;4.45;;;;;;;;;;5384462;26;19992;-69
2024/04/11 00:57:00;;;;;;;14.52;5.03;;;;;;;;;;5353002;26;20090;-69
2024/04/11 00:59:27;;;;;;;10.50;4.10;;;;;;;;;;5353484;26;19996;-69
2024/04/11 01:01:52;;;;;;;11.25;3.70;;;;;;;;;;5353645;26;20007;-69
2024/04/11 01:04:19;;;;;;;8.77;4.03;;;;;;;;;;5383876;26;20394;-69
2024/04/11 01:09:35;;;;;;;5.13;3.58;;;;;;;;;;5384479;26;20042;-69
2024/04/11 01:12:00;;;;;;;11.48;4.03;;;;;;;;;;5383862;26;20069;-68
2024/04/11 01:14:26;;;;;;;8.75;4.05;;;;;;;;;;5383490;26;20012;-69
2024/04/11 01:16:51;;;;;;;10.23;4.32;;;;;;;;;;5383733;26;20350;-69
2024/04/11 01:19:17;;;;;;;6.30;3.42;;;;;;;;;;5383727;26;20491;-69
2024/04/11 01:21:42;;;;;;;9.23;4.28;;;;;;;;;;5382938;26;20010;-69
2024/04/11 01:24:07;;;;;;;7.20;3.38;;;;;;;;;;5353096;26;19996;-69
2024/04/11 01:26:35;;;;;;;8.73;4.50;;;;;;;;;;5383570;26;20477;-69
2024/04/11 01:29:01;;;;;;;12.10;4.75;;;;;;;;;;5343688;26;19993;-69
2024/04/11 01:31:28;;;;;;;12.82;4.85;;;;;;;;;;5358728;26;20004;-68
2024/04/11 01:33:54;;;;;;;7.75;4.13;;;;;;;;;;5375464;26;20040;-69
2024/04/11 01:36:19;;;;;;;8.10;4.60;;;;;;;;;;5383015;26;20004;-69
2024/04/11 01:38:45;;;;;;;10.60;5.03;;;;;;;;;;5370469;26;20004;-68
2024/04/11 01:41:10;;;;;;;7.50;4.28;;;;;;;;;;5379992;26;20000;-69
2024/04/11 01:43:35;;;;;;;7.10;3.88;;;;;;;;;;5370712;26;20004;-69
2024/04/11 01:46:02;;;;;;;8.02;4.65;;;;;;;;;;5379256;26;20049;-69
2024/04/11 01:48:27;;;;;;;6.97;3.92;;;;;;;;;;5381226;26;20011;-68
2024/04/11 01:50:53;;;;;;;10.10;5.07;;;;;;;;;;5360821;26;20430;-69
2024/04/11 01:53:18;;;;;;;8.95;4.63;;;;;;;;;;5317470;26;20522;-69
2024/04/11 01:55:44;;;;;;;8.07;4.25;;;;;;;;;;5347834;26;20066;-69
2024/04/11 01:58:12;;;;;;;14.75;5.80;;;;;;;;;;5347668;26;19993;-69
2024/04/11 02:00:37;;;;;;;10.35;4.47;;;;;;;;;;5355827;26;19997;-69
2024/04/11 02:03:04;;;;;;;16.00;4.57;;;;;;;;;;5347920;26;20067;-69
2024/04/11 02:05:34;;;;;;;7.38;4.30;;;;;;;;;;5369867;26;20020;-69
2024/04/11 02:08:02;;;;;;;6.88;4.47;;;;;;;;;;5372158;26;19993;-69
2024/04/11 02:10:29;;;;;;;7.95;4.32;;;;;;;;;;5379231;26;20003;-69
2024/04/11 02:12:56;;;;;;;11.35;5.15;;;;;;;;;;5327115;26;20007;-69
2024/04/11 02:15:23;;;;;;;11.45;3.88;;;;;;;;;;5378426;26;20000;-69
2024/04/11 02:17:49;;;;;;;14.25;4.18;;;;;;;;;;5381318;26;20391;-69
2024/04/11 02:20:16;;;;;;;9.88;4.15;;;;;;;;;;5360841;26;20001;-69
2024/04/11 02:22:41;;;;;;;7.72;3.80;;;;;;;;;;5371689;26;19992;-69
2024/04/11 02:25:07;;;;;;;6.85;3.58;;;;;;;;;;5382419;26;20411;-68
2024/04/11 02:27:32;;;;;;;7.85;4.35;;;;;;;;;;5382620;26;20024;-69
2024/04/11 02:29:59;;;;;;;9.60;3.50;;;;;;;;;;5382434;26;20003;-69
2024/04/11 02:32:25;;;;;;;6.38;4.10;;;;;;;;;;5376379;26;20011;-69
2024/04/11 02:34:51;;;;;;;10.15;4.05;;;;;;;;;;5368510;26;20007;-68
2024/04/11 02:37:16;;;;;;;8.15;4.68;;;;;;;;;;5364655;26;20000;-69
2024/04/11 02:39:41;;;;;;;8.40;3.50;;;;;;;;;;5360102;26;19997;-69
2024/04/11 02:42:07;;;;;;;5.25;3.25;;;;;;;;;;5381161;26;19992;-67
2024/04/11 02:44:33;;;;;;;10.95;3.65;;;;;;;;;;5382547;26;20474;-69
2024/04/11 02:47:00;;;;;;;8.02;3.88;;;;;;;;;;5382566;26;19996;-69
2024/04/11 02:49:26;;;;;;;5.57;3.40;;;;;;;;;;5348008;26;20001;-69
2024/04/11 02:51:51;;;;;;;10.93;4.30;;;;;;;;;;5347051;26;19996;-69
2024/04/11 02:54:17;;;;;;;6.20;3.35;;;;;;;;;;5347399;26;20007;-69
2024/04/11 02:56:42;;;;;;;11.25;4.03;;;;;;;;;;5316109;26;20008;-68
2024/04/11 02:59:11;;;;;;;5.30;3.55;;;;;;;;;;5362252;26;19997;-69
2024/04/11 03:01:36;;;;;;;8.82;3.33;;;;;;;;;;5347096;26;20444;-69
2024/04/11 03:04:02;;;;;;;11.45;3.70;;;;;;;;;;5350287;26;19992;-68
2024/04/11 03:06:27;;;;;;;8.55;3.65;;;;;;;;;;5351111;26;19993;-69
2024/04/11 03:08:56;;;;;;;9.77;3.17;;;;;;;;;;5357797;26;20016;-68
2024/04/11 03:11:23;;;;;;;12.65;4.00;;;;;;;;;;5370087;26;20460;-69
2024/04/11 03:13:49;;;;;;;8.40;3.53;;;;;;;;;;5380724;26;20003;-68
2024/04/11 03:16:15;;;;;;;9.88;4.00;;;;;;;;;;5378126;26;20004;-68
2024/04/11 03:18:41;;;;;;;10.73;3.60;;;;;;;;;;5356634;26;20020;-68
2024/04/11 03:21:07;;;;;;;6.20;3.70;;;;;;;;;;5356837;26;20071;-68
2024/04/11 03:23:32;;;;;;;10.80;3.35;;;;;;;;;;5351744;26;20469;-69
2024/04/11 03:26:01;;;;;;;8.95;3.38;;;;;;;;;;5381855;26;20380;-69
2024/04/11 03:28:29;;;;;;;9.07;3.45;;;;;;;;;;5357627;26;20317;-69
2024/04/11 03:31:04;;;;;;;12.35;4.13;;;;;;;;;;5381472;26;20069;-69
2024/04/11 03:33:29;;;;;;;11.02;3.88;;;;;;;;;;5349177;26;20012;-68
2024/04/11 03:35:56;;;;;;;9.38;3.65;;;;;;;;;;5341882;26;20007;-69
2024/04/11 03:38:24;;;;;;;12.85;4.30;;;;;;;;;;5350574;26;19992;-69
2024/04/11 03:41:02;;;;;;;10.20;3.65;;;;;;;;;;5351029;26;20004;-69
2024/04/11 03:43:27;;;;;;;;;;;;;;;;;;5351711;26;20000;-69
2024/04/11 03:46:18;;;;;;;5.90;3.17;;;;;;;;;;5351170;26;19932;-69
2024/04/11 03:48:44;;;;;;;7.25;3.95;;;;;;;;;;5349717;26;20726;-69
2024/04/11 03:51:14;;;;;;;12.38;4.18;;;;;;;;;;5341485;26;20046;-68
2024/04/11 03:53:40;;;;;;;5.18;3.50;;;;;;;;;;5345637;26;20043;-69
2024/04/11 03:56:10;;;;;;;12.82;4.45;;;;;;;;;;5344731;26;20043;-69
2024/04/11 03:58:38;;;;;;;16.98;3.78;;;;;;;;;;5346262;26;20074;-69
2024/04/11 04:01:05;;;;;;;12.68;3.85;;;;;;;;;;5346505;26;20012;-69
2024/04/11 04:03:33;;;;;;;5.63;3.60;;;;;;;;;;5372050;26;20012;-69
2024/04/11 04:05:58;;;;;;;10.10;3.63;;;;;;;;;;5347886;26;20075;-69
2024/04/11 04:08:23;;;;;;;10.00;3.40;;;;;;;;;;5349448;26;19997;-68
2024/04/11 04:10:49;;;;;;;10.15;4.47;;;;;;;;;;5349530;26;19997;-69
2024/04/11 04:13:15;;;;;;;9.35;3.75;;;;;;;;;;5377509;26;20044;-69
2024/04/11 04:15:40;;;;;;;15.63;3.63;;;;;;;;;;5353321;26;20388;-69
2024/04/11 04:18:07;;;;;;;18.48;4.43;;;;;;;;;;5353290;26;20000;-69
2024/04/11 04:20:33;;;;;;;9.80;3.67;;;;;;;;;;5361692;26;19997;-69
2024/04/11 04:22:58;;;;;;;11.57;4.00;;;;;;;;;;5348796;26;20470;-69
2024/04/11 04:25:25;;;;;;;9.93;4.20;;;;;;;;;;5351234;26;20008;-68
2024/04/11 04:27:52;;;;;;;8.57;3.55;;;;;;;;;;5350195;26;20500;-68
2024/04/11 04:30:17;;;;;;;7.82;4.03;;;;;;;;;;5376724;26;19992;-68
2024/04/11 04:32:43;;;;;;;13.55;4.43;;;;;;;;;;5383217;26;20065;-68
2024/04/11 04:35:09;;;;;;;10.13;4.00;;;;;;;;;;5366714;26;20413;-68
2024/04/11 04:37:40;;;;;;;11.65;4.53;;;;;;;;;;5349208;26;19997;-69
2024/04/11 04:40:07;;;;;;;;;;;;;;;;;;5347955;26;20008;-68
2024/04/11 04:42:32;;;;;;;5.43;3.28;;;;;;;;;;5349173;26;19938;-68
2024/04/11 04:44:57;;;;;;;16.90;4.50;;;;;;;;;;5348671;26;20408;-68
2024/04/11 04:47:28;;;;;;;7.97;3.55;;;;;;;;;;5349136;26;20003;-68
2024/04/11 04:49:55;;;;;;;7.03;4.22;;;;;;;;;;5381583;26;20008;-68
2024/04/11 04:52:24;;;;;;;15.50;3.30;;;;;;;;;;5353144;26;20347;-68
2024/04/11 04:54:51;;;;;;;6.55;3.35;;;;;;;;;;5383873;26;20000;-69
2024/04/11 04:57:16;;;;;;;9.93;4.07;;;;;;;;;;5352809;26;20066;-68
2024/04/11 04:59:42;;;;;;;7.93;4.55;;;;;;;;;;5352472;26;19992;-68
2024/04/11 05:02:09;;;;;;;8.10;3.53;;;;;;;;;;5372167;26;20040;-68
2024/04/11 05:04:34;;;;;;;10.75;3.78;;;;;;;;;;5352799;26;20008;-68
2024/04/11 05:07:00;;;;;;;15.10;4.75;;;;;;;;;;5352694;26;19992;-68
2024/04/11 05:09:26;;;;;;;12.60;3.60;;;;;;;;;;5382422;26;20441;-68
2024/04/11 05:11:51;;;;;;;9.18;3.50;;;;;;;;;;5352012;26;19992;-69
2024/04/11 05:14:16;;;;;;;10.55;3.95;;;;;;;;;;5382654;26;20065;-68
2024/04/11 05:16:43;;;;;;;7.95;2.90;;;;;;;;;;5383402;26;20341;-68
2024/04/11 05:19:11;;;;;;;11.98;3.88;;;;;;;;;;5377021;26;20130;-69
2024/04/11 05:21:39;;;;;;;7.75;3.83;;;;;;;;;;5379180;26;20003;-69
2024/04/11 05:24:04;;;;;;;12.18;3.35;;;;;;;;;;5383016;26;20000;-69
2024/04/11 05:26:31;;;;;;;9.85;3.58;;;;;;;;;;5382772;26;19996;-69
2024/04/11 05:28:57;;;;;;;10.88;4.15;;;;;;;;;;5383255;26;20066;-69
2024/04/11 05:31:25;;;;;;;7.68;3.95;;;;;;;;;;5352958;26;20008;-68
2024/04/11 05:33:54;;;;;;;7.90;4.53;;;;;;;;;;5383389;26;20074;-69
2024/04/11 05:36:25;;;;;;;11.20;4.47;;;;;;;;;;5361927;26;20362;-69
2024/04/11 05:38:53;;;;;;;11.98;4.35;;;;;;;;;;5356263;26;20000;-69
2024/04/11 05:41:18;;;;;;;13.27;4.22;;;;;;;;;;5346321;26;20007;-69
2024/04/11 05:43:44;;;;;;;9.60;3.83;;;;;;;;;;5351354;26;19993;-69
2024/04/11 05:46:10;;;;;;;13.30;5.22;;;;;;;;;;5381373;26;20004;-69
2024/04/11 05:48:35;;;;;;;14.00;4.30;;;;;;;;;;5350963;26;20408;-68
2024/04/11 05:51:05;;;;;;;13.30;4.45;;;;;;;;;;5372700;26;20007;-69
2024/04/11 05:53:31;;;;;;;9.13;3.85;;;;;;;;;;5353417;26;19992;-69
2024/04/11 05:55:56;;;;;;;13.15;4.53;;;;;;;;;;5383117;26;20470;-69
2024/04/11 05:58:21;;;;;;;9.13;4.53;;;;;;;;;;5382898;26;19996;-69
2024/04/11 06:00:49;;;;;;;10.13;4.43;;;;;;;;;;5382584;26;19996;-69
2024/04/11 06:03:15;;;;;;;16.00;4.38;;;;;;;;;;5372102;26;19997;-69
2024/04/11 06:05:41;;;;;;;14.82;6.05;;;;;;;;;;5365543;26;19993;-69
2024/04/11 06:08:07;;;;;;;13.32;4.75;;;;;;;;;;5347669;26;20012;-69
2024/04/11 06:10:33;;;;;;;9.90;4.85;;;;;;;;;;5352912;26;20537;-68
2024/04/11 06:12:58;;;;;;;12.80;4.35;;;;;;;;;;5382062;26;19996;-68
2024/04/11 06:15:23;;;;;;;10.50;4.60;;;;;;;;;;5370787;26;20457;-69
2024/04/11 06:17:49;;;;;;;14.80;4.20;;;;;;;;;;5351799;26;19992;-69
2024/04/11 06:20:21;;;;;;;18.02;5.95;;;;;;;;;;5367430;26;19997;-69
2024/04/11 06:22:51;;;;;;;14.07;4.35;;;;;;;;;;5371313;26;20000;-67
2024/04/11 06:25:20;;;;;;;17.45;5.45;;;;;;;;;;5342523;26;20011;-69
2024/04/11 06:27:45;;;;;;;15.15;4.80;;;;;;;;;;5378186;26;20425;-68
2024/04/11 06:30:14;;;;;;;11.32;5.07;;;;;;;;;;5349247;26;20061;-69
2024/04/11 06:32:40;;;;;;;11.68;5.07;;;;;;;;;;5346064;26;20003;-69
2024/04/11 06:35:06;;;;;;;15.02;5.68;;;;;;;;;;5371294;26;20008;-68
2024/04/11 06:37:31;;;;;;;15.18;6.60;;;;;;;;;;5382206;26;19996;-68
2024/04/11 06:39:58;;;;;;;20.42;6.05;;;;;;;;;;5381859;26;20032;-69
2024/04/11 06:42:24;;;;;;;12.88;5.10;;;;;;;;;;5352139;26;20004;-68
2024/04/11 06:44:49;;;;;;;28.55;6.18;;;;;;;;;;5382702;26;20000;-68
2024/04/11 06:47:16;;;;;;;17.05;5.90;;;;;;;;;;5382696;26;20000;-69
2024/04/11 06:49:42;;;;;;;14.95;5.40;;;;;;;;;;5382624;26;20000;-69
2024/04/11 06:52:12;;;;;;;11.52;6.55;;;;;;;;;;5382034;26;20011;-69
2024/04/11 06:54:40;;;;;;;12.70;5.78;;;;;;;;;;5382639;26;20000;-69
2024/04/11 06:57:06;;;;;;;21.67;6.32;;;;;;;;;;5351628;26;20453;-69
2024/04/11 06:59:32;;;;;;;20.27;5.72;;;;;;;;;;5380920;26;20004;-68
2024/04/11 07:01:58;;;;;;;18.45;6.90;;;;;;;;;;5382309;26;20416;-68
2024/04/11 07:04:23;;;;;;;21.10;6.80;;;;;;;;;;5382309;26;20041;-68
2024/04/11 07:06:49;;;;;;;14.45;6.90;;;;;;;;;;5381646;26;20004;-68
2024/04/11 07:09:14;;;;;;;16.60;6.68;;;;;;;;;;5382100;26;20008;-68
2024/04/11 07:11:40;;;;;;;18.00;5.93;;;;;;;;;;5382000;26;20000;-69
2024/04/11 07:14:11;;;;;;;21.33;7.80;;;;;;;;;;5382326;26;20000;-69
2024/04/11 07:16:40;;;;;;;19.00;6.88;;;;;;;;;;5323212;26;20012;-69
2024/04/11 07:19:08;;;;;;;24.40;7.70;;;;;;;;;;5382090;26;19996;-69
2024/04/11 07:21:34;;;;;;;23.42;6.82;;;;;;;;;;5351561;26;20002;-68
2024/04/11 07:24:01;;;;;;;18.58;6.47;;;;;;;;;;5381872;26;20023;-69
2024/04/11 07:26:30;;;;;;;20.67;6.40;;;;;;;;;;5381847;26;20343;-69
2024/04/11 07:29:06;;;;;;;13.25;6.65;;;;;;;;;;5350470;26;20000;-69
2024/04/11 07:31:33;;;;;;;20.85;6.65;;;;;;;;;;5380099;26;20008;-69
2024/04/11 07:34:02;;;;;;;22.77;7.03;;;;;;;;;;5351416;26;20046;-69
2024/04/11 07:36:28;;;;;;;17.08;7.10;;;;;;;;;;5351581;26;19993;-70
2024/04/11 07:38:54;;;;;;;20.17;6.82;;;;;;;;;;5384462;26;20073;-69
2024/04/11 07:41:27;;;;;;;13.85;7.28;;;;;;;;;;5384999;26;20011;-69
2024/04/11 07:43:57;;;;;;;21.92;7.28;;;;;;;;;;5384989;26;19996;-69
2024/04/11 07:46:29;;;;;;;26.45;6.60;;;;;;;;;;5385118;26;20038;-69
2024/04/11 07:48:58;;;;;;;22.92;7.70;;;;;;;;;;5354871;26;20011;-69
2024/04/11 07:51:23;;;;;;;18.85;7.82;;;;;;;;;;5384453;26;19997;-69
2024/04/11 07:53:49;;;;;;;18.13;7.90;;;;;;;;;;5353934;26;20000;-69
2024/04/11 07:56:23;;;;;;;19.05;7.35;;;;;;;;;;5384886;26;20012;-69
2024/04/11 07:58:49;;;;;;;21.23;7.05;;;;;;;;;;5354146;26;20453;-69
2024/04/11 08:01:16;;;;;;;24.60;8.32;;;;;;;;;;5353770;26;20457;-70
2024/04/11 08:03:42;;;;;;;14.88;7.35;;;;;;;;;;5384160;26;20489;-69
2024/04/11 08:06:10;;;;;;;20.60;8.10;;;;;;;;;;5329555;26;19993;-68
2024/04/11 08:08:38;;;;;;;17.13;8.55;;;;;;;;;;5358776;26;20004;-69
2024/04/11 08:11:06;;;;;;;16.23;8.10;;;;;;;;;;5353769;26;20397;-69
2024/04/11 08:13:32;;;;;;;21.80;8.27;;;;;;;;;;5359867;26;19992;-69
2024/04/11 08:15:57;;;;;;;21.80;7.18;;;;;;;;;;5348675;26;20047;-69
2024/04/11 08:18:24;;;;;;;17.90;7.75;;;;;;;;;;5318544;26;20007;-69
2024/04/11 08:20:49;;;;;;;17.67;7.93;;;;;;;;;;5353433;26;20446;-69
2024/04/11 08:23:19;;;;;;;19.50;8.85;;;;;;;;;;5365129;26;20094;-69
2024/04/11 08:25:45;;;;;;;21.55;7.15;;;;;;;;;;5326723;26;20385;-70
2024/04/11 08:28:11;;;;;;;20.40;6.32;;;;;;;;;;5377611;26;20023;-70
2024/04/11 08:30:36;;;;;;;18.63;9.25;;;;;;;;;;5349568;26;20481;-70
2024/04/11 08:33:09;;;;;;;18.98;7.65;;;;;;;;;;5365960;26;20000;-70
2024/04/11 08:35:34;;;;;;;18.60;8.95;;;;;;;;;;5348776;26;20001;-69
2024/04/11 08:39:34;;;;;;;24.45;8.88;;;;;;;;;;5467524;26;20386;-70
2024/04/11 08:42:01;;;;;;;14.77;6.55;;;;;;;;;;5471547;26;19999;-71
2024/04/11 08:44:26;;;;;;;25.75;8.48;;;;;;;;;;5453747;26;19996;-70
2024/04/11 08:46:51;;;;;;;18.73;7.70;;;;;;;;;;5442136;26;19991;-70
2024/04/11 08:49:16;;;;;;;22.88;9.70;;;;;;;;;;5467576;26;19999;-69
2024/04/11 08:51:44;;;;;;;24.83;8.63;;;;;;;;;;5457529;26;19991;-70
2024/04/11 08:54:09;;;;;;;21.13;9.68;;;;;;;;;;5434597;26;20003;-70
2024/04/11 08:56:35;;;;;;;24.83;10.82;;;;;;;;;;5435101;26;20333;-70
2024/04/11 08:59:00;;;;;;;25.17;12.65;;;;;;;;;;5436800;26;20332;-70
2024/04/11 09:01:25;;;;;;;26.98;10.07;;;;;;;;;;5436471;26;19996;-70
2024/04/11 09:03:52;;;;;;;34.63;11.25;;;;;;;;;;5435793;26;20006;-70
2024/04/11 09:06:26;;;;;;;31.40;10.43;;;;;;;;;;5441296;26;19999;-70
2024/04/11 09:08:56;;;;;;;29.25;11.25;;;;;;;;;;5433299;26;20399;-70
2024/04/11 09:11:22;;;;;;;29.70;10.60;;;;;;;;;;5433975;26;19995;-70
2024/04/11 09:13:48;;;;;;;31.50;11.10;;;;;;;;;;5433780;26;19996;-69
2024/04/11 09:16:15;;;;;;;26.73;10.82;;;;;;;;;;5433717;26;20006;-70
2024/04/11 09:18:40;;;;;;;36.90;12.98;;;;;;;;;;5432467;26;20395;-69
2024/04/11 09:21:06;;;;;;;37.53;12.20;;;;;;;;;;5432352;26;20010;-67
2024/04/11 09:23:44;;;;;;;33.00;10.63;;;;;;;;;;5421445;26;20020;-69
2024/04/11 09:26:10;;;;;;;32.03;12.10;;;;;;;;;;5433192;26;20483;-68
2024/04/11 09:28:37;;;;;;;40.45;12.48;;;;;;;;;;5432878;26;19995;-69
2024/04/11 09:31:04;;;;;;;28.92;12.13;;;;;;;;;;5432562;26;20325;-69
2024/04/11 09:33:31;;;;;;;33.83;11.05;;;;;;;;;;5429628;26;20023;-69
2024/04/11 09:35:58;;;;;;;34.58;12.20;;;;;;;;;;5428941;26;20387;-69
2024/04/11 09:38:23;;;;;;;43.42;12.38;;;;;;;;;;5430137;26;20015;-69
2024/04/11 09:40:53;;;;;;;35.13;12.43;;;;;;;;;;5428739;26;20468;-69
2024/04/11 09:43:27;;;;;;;37.53;13.35;;;;;;;;;;5432769;26;20071;-69
2024/04/11 09:45:56;;;;;;;30.42;11.02;;;;;;;;;;5432455;26;19995;-69
2024/04/11 09:48:24;;;;;;;43.35;11.93;;;;;;;;;;5432526;26;20010;-70
2024/04/11 09:50:51;;;;;;;31.75;11.88;;;;;;;;;;5416402;26;20034;-68
2024/04/11 09:53:26;;;;;;;36.80;13.02;;;;;;;;;;5416267;26;19999;-68
2024/04/11 09:56:04;;;;;;;46.65;13.15;;;;;;;;;;5415447;26;19995;-69
2024/04/11 09:58:32;;;;;;;39.78;11.90;;;;;;;;;;5415455;26;20018;-69
2024/04/11 10:01:04;;;;;;;37.15;11.98;;;;;;;;;;5415676;26;19991;-70
2024/04/11 10:03:31;;;;;;;31.83;10.20;;;;;;;;;;5451037;26;19996;-69
2024/04/11 10:06:00;;;;;;;37.45;12.18;;;;;;;;;;5427974;26;20007;-70
2024/04/11 10:08:38;;;;;;;36.97;11.90;;;;;;;;;;5419227;26;20018;-69
2024/04/11 10:11:08;;;;;;;38.72;12.32;;;;;;;;;;5419890;26;20014;-70
2024/04/11 10:13:40;;;;;;;34.35;12.30;;;;;;;;;;5388149;26;20526;-69
2024/04/11 10:16:06;;;;;;;38.55;12.27;;;;;;;;;;5419331;26;20083;-70
2024/04/11 10:18:41;;;;;;;34.50;12.25;;;;;;;;;;5419062;26;20453;-69
2024/04/11 10:21:11;;;;;;;46.17;12.40;;;;;;;;;;5409915;26;20015;-69
2024/04/11 10:23:41;;;;;;;34.50;12.52;;;;;;;;;;5396208;26;19996;-70
2024/04/11 10:26:14;;;;;;;32.95;13.20;;;;;;;;;;5418742;26;20342;-69
2024/04/11 10:28:43;;;;;;;41.28;13.15;;;;;;;;;;5418415;26;19995;-70
2024/04/11 10:31:11;;;;;;;35.90;11.55;;;;;;;;;;5416854;26;19995;-69
2024/04/11 10:33:47;;;;;;;35.75;12.63;;;;;;;;;;5418508;26;20186;-69
2024/04/11 10:36:13;;;;;;;36.33;11.40;;;;;;;;;;5418867;26;19995;-69
2024/04/11 10:38:41;;;;;;;32.05;11.55;;;;;;;;;;5417158;26;20353;-69
2024/04/11 10:41:08;;;;;;;43.00;9.65;;;;;;;;;;5417907;26;20007;-69
2024/04/11 10:43:36;;;;;;;34.53;9.88;;;;;;;;;;5417387;26;20407;-69
2024/04/11 10:46:05;;;;;;;43.53;11.02;;;;;;;;;;5418955;26;20000;-69
2024/04/11 10:48:31;;;;;;;32.80;9.35;;;;;;;;;;5427849;26;20006;-68
2024/04/11 10:51:00;;;;;;;30.25;9.48;;;;;;;;;;5418706;26;19991;-68
2024/04/11 10:53:25;;;;;;;32.35;11.13;;;;;;;;;;5418079;26;20006;-68
2024/04/11 10:55:55;;;;;;;38.78;10.93;;;;;;;;;;5447180;26;19991;-69
2024/04/11 10:58:25;;;;;;;32.17;9.18;;;;;;;;;;5420305;26;20000;-69
2024/04/11 11:06:25;;;;;;;46.45;10.40;;;;;;;;;;5416628;26;19995;-68
2024/04/11 11:09:10;;;;;;;20.05;7.32;;;;;;;;;;5454463;26;20440;-68
2024/04/11 11:11:39;;;;;;;25.13;8.73;;;;;;;;;;5479159;26;19994;-67
2024/04/11 11:14:06;;;;;;;24.02;7.05;;;;;;;;;;5454421;26;20006;-68
2024/04/11 11:16:32;;;;;;;27.42;7.50;;;;;;;;;;5454473;26;20005;-67
2024/04/11 11:19:00;;;;;;;23.80;8.35;;;;;;;;;;5429360;26;19991;-68
2024/04/11 11:21:32;;;;;;;38.50;10.90;;;;;;;;;;5418219;26;20387;-67
2024/04/11 11:24:01;;;;;;;28.52;7.85;;;;;;;;;;5416129;26;20006;-68
2024/04/11 11:26:43;;;;;;;40.75;9.55;;;;;;;;;;5418402;26;20073;-68
2024/04/11 11:29:10;;;;;;;40.05;9.90;;;;;;;;;;5418393;26;20000;-69
2024/04/11 11:31:36;;;;;;;32.35;9.30;;;;;;;;;;5415375;26;20364;-66
2024/04/11 11:34:12;;;;;;;27.17;8.25;;;;;;;;;;5446304;26;20026;-68
2024/04/11 11:36:47;;;;;;;22.58;8.10;;;;;;;;;;5440920;26;19992;-68
2024/04/11 11:39:19;;;;;;;29.88;8.63;;;;;;;;;;5446337;26;19992;-69
2024/04/11 11:41:48;;;;;;;37.05;9.68;;;;;;;;;;5415959;26;20345;-69
2024/04/11 11:44:18;;;;;;;24.90;7.68;;;;;;;;;;5446204;26;20486;-69
2024/04/11 11:46:49;;;;;;;27.80;10.88;;;;;;;;;;5417681;26;20352;-69
2024/04/11 11:49:17;;;;;;;19.45;6.72;;;;;;;;;;5419623;26;20028;-69
2024/04/11 11:51:46;;;;;;;29.73;7.53;;;;;;;;;;5417909;26;19998;-68
2024/04/11 11:54:14;;;;;;;28.15;6.68;;;;;;;;;;5417264;26;20000;-68
2024/04/11 11:56:42;;;;;;;27.52;7.25;;;;;;;;;;5417782;26;20007;-68
2024/04/11 11:59:11;;;;;;;25.10;6.97;;;;;;;;;;5419886;26;20553;-67
2024/04/11 12:01:43;;;;;;;24.83;7.18;;;;;;;;;;5451747;26;20002;-68
2024/04/11 12:04:10;;;;;;;30.92;6.55;;;;;;;;;;5452913;26;20002;-68
2024/04/11 12:06:35;;;;;;;21.38;6.65;;;;;;;;;;5442865;26;20015;-68
2024/04/11 12:09:10;;;;;;;22.13;6.20;;;;;;;;;;5450056;26;19991;-68
2024/04/11 12:11:40;;;;;;;26.55;7.15;;;;;;;;;;5452566;26;19987;-67
2024/04/11 12:14:05;;;;;;;27.55;6.15;;;;;;;;;;5451518;26;19987;-68
2024/04/11 12:16:38;;;;;;;30.63;6.22;;;;;;;;;;5453460;26;20069;-68
2024/04/11 12:19:04;;;;;;;14.30;5.97;;;;;;;;;;5422032;26;19996;-68
2024/04/11 12:21:34;;;;;;;19.95;5.93;;;;;;;;;;5417033;26;20005;-68
2024/04/11 12:26:29;;;;;;;21.05;7.85;;;;;;;;;;5344954;26;20077;-68
2024/04/11 12:28:56;;;;;;;27.45;6.80;;;;;;;;;;5345304;26;19997;-68
2024/04/11 12:31:21;;;;;;;19.23;7.03;;;;;;;;;;5345623;26;20711;-68
2024/04/11 12:33:48;;;;;;;24.13;6.43;;;;;;;;;;5310309;27;20030;-68
2024/04/11 12:39:14;;;;;;;26.67;6.95;;;;;;;;;;5311879;27;20048;-68
2024/04/11 12:41:43;;;;;;;21.30;6.50;;;;;;;;;;5311056;27;19998;-68
2024/04/11 12:44:11;;;;;;;29.73;7.15;;;;;;;;;;5312054;27;20038;-68
2024/04/11 12:46:49;;;;;;;16.27;6.00;;;;;;;;;;5312167;27;19998;-68
2024/04/11 12:49:15;;;;;;;;;;;;;;;;;;5276520;27;20463;-68
2024/04/11 12:51:45;;;;;;;17.15;5.40;;;;;;;;;;5276154;27;19956;-68
2024/04/11 12:54:15;;;;;;;19.95;5.63;;;;;;;;;;5248456;27;20006;-68
2024/04/11 12:56:44;;;;;;;18.45;6.05;;;;;;;;;;5249452;27;20006;-68
2024/04/11 12:59:28;;;;;;;14.75;5.13;;;;;;;;;;5294176;26;20005;-68
2024/04/11 13:01:55;;;;;;;24.33;5.78;;;;;;;;;;5312050;27;20013;-68
2024/04/11 13:04:26;;;;;;;21.52;5.90;;;;;;;;;;5310872;27;19997;-68
2024/04/11 13:06:57;;;;;;;20.20;6.07;;;;;;;;;;5311478;27;20382;-68
2024/04/11 13:09:31;;;;;;;29.02;6.25;;;;;;;;;;5311946;27;20049;-69
2024/04/11 13:12:00;;;;;;;17.60;5.30;;;;;;;;;;5311758;27;20012;-68
2024/04/11 13:14:27;;;;;;;31.05;5.85;;;;;;;;;;5311449;27;20479;-68
2024/04/11 13:17:02;;;;;;;22.15;5.40;;;;;;;;;;5310997;27;20008;-68
2024/04/11 13:19:34;;;;;;;20.10;6.03;;;;;;;;;;5311453;27;20001;-69
2024/04/11 13:22:03;;;;;;;26.90;5.82;;;;;;;;;;5282332;27;20304;-68
2024/04/11 13:24:45;;;;;;;23.80;5.78;;;;;;;;;;5281684;27;20415;-69
2024/04/11 13:27:15;;;;;;;20.17;8.20;;;;;;;;;;5287255;27;20009;-69
2024/04/11 13:29:48;;;;;;;21.13;5.13;;;;;;;;;;5314682;27;20093;-69
2024/04/11 13:32:15;;;;;;;20.23;5.25;;;;;;;;;;5315027;27;20001;-69
2024/04/11 13:34:59;;;;;;;23.05;4.82;;;;;;;;;;5285479;27;20009;-69
2024/04/11 13:37:25;;;;;;;24.00;5.03;;;;;;;;;;5314945;27;19997;-69
2024/04/11 13:40:57;;;;;;;19.33;6.15;;;;;;;;;;5314948;27;19997;-68
2024/04/11 13:42:42;;;;;;;33.20;5.93;;;;;;;;;;5314486;27;20004;-68
2024/04/11 13:45:10;;;;;;;18.52;5.60;;;;;;;;;;5314848;27;20397;-69
2024/04/11 13:47:35;;;;;;;18.00;5.78;;;;;;;;;;5315170;27;20045;-69
2024/04/11 13:50:21;;;;;;;23.08;5.43;;;;;;;;;;5315128;27;20383;-69
2024/04/11 13:52:50;;;;;;;19.73;5.22;;;;;;;;;;5314501;27;20045;-69
2024/04/11 13:55:18;;;;;;;21.58;4.60;;;;;;;;;;5315003;27;20008;-69
2024/04/11 13:57:46;;;;;;;15.57;4.47;;;;;;;;;;5314897;27;20009;-69
2024/04/11 14:00:13;;;;;;;21.05;5.47;;;;;;;;;;5314839;27;20009;-69
2024/04/11 14:02:46;;;;;;;25.83;7.82;;;;;;;;;;5283760;27;20332;-69
2024/04/11 14:05:28;;;;;;;27.92;5.30;;;;;;;;;;5314451;27;20009;-69
2024/04/11 14:07:54;;;;;;;24.42;6.18;;;;;;;;;;5314160;27;20005;-69
2024/04/11 14:10:20;;;;;;;20.00;5.93;;;;;;;;;;5255384;27;20001;-69
2024/04/11 14:12:45;;;;;;;19.60;4.88;;;;;;;;;;5284220;27;19998;-69
2024/04/11 14:15:10;;;;;;;19.10;5.40;;;;;;;;;;5314026;27;20002;-69
2024/04/11 14:17:36;;;;;;;25.80;4.68;;;;;;;;;;5313900;27;20001;-69
2024/04/11 14:21:17;;;;;;;18.35;5.13;;;;;;;;;;5313475;27;20006;-69
2024/04/11 14:23:14;;;;;;;24.23;6.10;;;;;;;;;;5276340;27;20436;-69
2024/04/11 14:25:43;;;;;;;15.73;4.47;;;;;;;;;;5314220;27;19998;-69
2024/04/11 14:28:15;;;;;;;19.75;4.38;;;;;;;;;;5284261;27;20009;-69
2024/04/11 14:30:48;;;;;;;24.75;5.32;;;;;;;;;;5313928;27;19994;-69
2024/04/11 14:33:37;;;;;;;25.23;5.43;;;;;;;;;;5313823;27;20017;-69
2024/04/11 14:38:36;;;;;;;27.65;4.75;;;;;;;;;;5314993;27;19997;-69
2024/04/11 14:41:04;;;;;;;23.05;5.38;;;;;;;;;;5313673;27;20052;-69
2024/04/11 14:43:30;;;;;;;22.42;4.80;;;;;;;;;;5313040;27;20001;-69
2024/04/11 14:45:56;;;;;;;19.75;4.13;;;;;;;;;;5313696;27;19998;-69
2024/04/11 14:48:21;;;;;;;13.57;5.28;;;;;;;;;;5313486;27;20316;-69
2024/04/11 14:50:58;;;;;;;23.20;6.20;;;;;;;;;;5282627;27;20041;-69
2024/04/11 14:53:24;;;;;;;16.15;4.20;;;;;;;;;;5284899;27;20072;-69